createdAt,value
2022-10-31T00:01:51.294Z,99097.50
2022-10-31T00:03:53.497Z,99096.91
2022-10-31T00:05:55.040Z,99093.63
2022-10-31T00:07:56.990Z,99093.06
2022-10-31T00:10:00.482Z,99093.34
2022-10-31T00:12:04.957Z,99099.38
2022-10-31T00:14:11.075Z,99097.72
2022-10-31T00:16:21.223Z,99098.00
2022-10-31T00:18:22.882Z,99094.72
2022-10-31T00:20:25.616Z,99096.06
2022-10-31T00:22:27.141Z,99096.31
2022-10-31T00:24:34.111Z,99095.78
2022-10-31T00:26:35.772Z,99099.59
2022-10-31T00:28:37.342Z,99100.72
2022-10-31T00:30:38.877Z,99100.16
2022-10-31T00:32:40.723Z,99109.50
2022-10-31T00:34:42.513Z,99109.78
2022-10-31T00:36:45.038Z,99102.06
2022-10-31T00:38:48.928Z,99105.06
2022-10-31T00:40:50.545Z,99108.94
2022-10-31T00:42:52.593Z,99104.75
2022-10-31T00:44:55.520Z,99102.28
2022-10-31T00:46:57.171Z,99107.75
2022-10-31T00:49:01.559Z,99108.28
2022-10-31T00:51:03.562Z,99109.41
2022-10-31T00:53:05.251Z,99105.81
2022-10-31T00:55:07.225Z,99104.44
2022-10-31T00:57:09.016Z,99107.47
2022-10-31T00:59:14.861Z,99112.38
2022-10-31T01:01:19.472Z,99112.66
2022-10-31T01:03:32.662Z,99104.13
2022-10-31T01:05:34.284Z,99106.06
2022-10-31T01:07:41.387Z,99106.06
2022-10-31T01:09:44.482Z,99109.06
2022-10-31T01:11:46.436Z,99112.09
2022-10-31T01:13:50.416Z,99115.66
2022-10-31T01:15:59.286Z,99110.69
2022-10-31T01:18:01.263Z,99101.91
2022-10-31T01:20:07.191Z,99112.06
2022-10-31T01:22:13.112Z,99109.31
2022-10-31T01:24:14.809Z,99108.50
2022-10-31T01:26:25.474Z,99107.94
2022-10-31T01:28:28.957Z,99108.47
2022-10-31T01:30:30.787Z,99107.63
2022-10-31T01:32:38.372Z,99111.47
2022-10-31T01:34:40.128Z,99110.09
2022-10-31T01:36:42.482Z,99111.19
2022-10-31T01:38:46.050Z,99113.09
2022-10-31T01:40:49.911Z,99110.34
2022-10-31T01:42:52.185Z,99110.63
2022-10-31T01:44:58.889Z,99108.13
2022-10-31T01:47:13.369Z,99107.56
2022-10-31T01:49:24.706Z,99109.75
2022-10-31T01:51:36.552Z,99107.03
2022-10-31T01:53:38.692Z,99106.75
2022-10-31T01:55:46.324Z,99109.75
2022-10-31T01:57:58.947Z,99110.84
2022-10-31T02:00:05.098Z,99108.09
2022-10-31T02:02:17.981Z,99101.53
2022-10-31T02:04:23.040Z,99116.34
2022-10-31T02:06:39.293Z,99110.59
2022-10-31T02:08:41.696Z,99108.69
2022-10-31T02:10:45.054Z,99104.84
2022-10-31T02:12:47.747Z,99104.84
2022-10-31T02:14:50.242Z,99108.13
2022-10-31T02:16:54.243Z,99105.66
2022-10-31T02:18:57.390Z,99103.75
2022-10-31T02:21:15.746Z,99104.28
2022-10-31T02:23:55.991Z,99103.44
2022-10-31T02:26:22.163Z,99110.03
2022-10-31T02:28:47.011Z,99095.22
2022-10-31T02:30:49.706Z,99094.97
2022-10-31T02:32:57.538Z,99093.28
2022-10-31T02:35:08.093Z,99088.63
2022-10-31T02:37:23.931Z,99099.63
2022-10-31T02:39:35.115Z,99094.13
2022-10-31T02:41:53.588Z,99080.66
2022-10-31T02:44:08.205Z,99091.63
2022-10-31T02:46:19.585Z,99087.25
2022-10-31T02:48:28.280Z,99090.81
2022-10-31T02:50:35.840Z,99086.13
2022-10-31T02:52:38.252Z,99091.91
2022-10-31T02:54:48.009Z,99090.53
2022-10-31T02:56:54.300Z,99094.09
2022-10-31T02:59:01.389Z,99095.19
2022-10-31T03:01:24.615Z,99093.53
2022-10-31T03:03:48.091Z,99091.03
2022-10-31T03:06:15.463Z,99094.91
2022-10-31T03:08:26.515Z,99098.72
2022-10-31T03:10:37.639Z,99097.88
2022-10-31T03:13:02.677Z,99100.91
2022-10-31T03:15:18.785Z,99100.59
2022-10-31T03:17:31.721Z,99100.59
2022-10-31T03:19:40.030Z,99102.53
2022-10-31T03:21:56.712Z,99093.47
2022-10-31T03:24:00.181Z,99103.63
2022-10-31T03:26:05.526Z,99108.28
2022-10-31T03:28:11.044Z,99094.84
2022-10-31T03:30:13.052Z,99088.75
2022-10-31T03:32:48.309Z,99105.50
2022-10-31T03:34:53.119Z,99098.94
2022-10-31T03:36:58.130Z,99100.03
2022-10-31T03:39:04.204Z,99094.81
2022-10-31T03:41:13.773Z,99096.97
2022-10-31T03:45:32.216Z,99098.06
2022-10-31T03:47:44.030Z,99099.16
2022-10-31T03:49:46.079Z,99095.56
2022-10-31T03:52:06.238Z,99098.59
2022-10-31T03:54:22.152Z,99107.91
2022-10-31T03:56:41.489Z,99112.59
2022-10-31T03:58:50.959Z,99099.13
2022-10-31T04:00:56.064Z,99108.19
2022-10-31T04:03:06.941Z,99107.34
2022-10-31T04:05:12.097Z,99111.22
2022-10-31T04:07:15.884Z,99098.84
2022-10-31T04:09:20.470Z,99098.00
2022-10-31T04:11:27.127Z,99101.84
2022-10-31T04:14:00.871Z,99103.19
2022-10-31T04:16:02.942Z,99101.53
2022-10-31T04:18:06.225Z,99100.16
2022-10-31T04:20:08.458Z,99099.56
2022-10-31T04:22:14.010Z,99094.91
2022-10-31T04:24:15.835Z,99099.00
2022-10-31T04:26:17.681Z,99096.28
2022-10-31T04:30:26.498Z,99100.38
2022-10-31T04:32:29.421Z,99096.00
2022-10-31T04:34:33.715Z,99096.22
2022-10-31T04:36:35.454Z,99098.13
2022-10-31T04:38:37.059Z,99098.41
2022-10-31T04:40:51.337Z,99099.50
2022-10-31T04:43:15.212Z,99100.03
2022-10-31T04:45:26.024Z,99095.06
2022-10-31T04:47:33.252Z,99101.63
2022-10-31T04:49:35.854Z,99101.63
2022-10-31T04:51:37.553Z,99102.47
2022-10-31T04:53:42.321Z,99098.06
2022-10-31T04:56:10.200Z,99098.63
2022-10-31T04:58:21.725Z,99099.69
2022-10-31T05:00:27.370Z,99099.94
2022-10-31T05:02:30.723Z,99104.59
2022-10-31T05:04:34.043Z,99096.59
2022-10-31T05:06:37.948Z,99104.59
2022-10-31T05:08:39.846Z,99098.25
2022-10-31T05:10:44.024Z,99095.78
2022-10-31T05:12:50.389Z,99101.53
2022-10-31T05:15:10.652Z,99099.34
2022-10-31T05:17:35.523Z,99090.56
2022-10-31T05:20:10.606Z,99094.13
2022-10-31T05:22:30.823Z,99094.97
2022-10-31T05:24:34.235Z,99082.66
2022-10-31T05:26:35.864Z,99088.97
2022-10-31T05:28:37.598Z,99089.56
2022-10-31T05:30:39.190Z,99092.28
2022-10-31T05:32:49.403Z,99093.13
2022-10-31T05:35:17.645Z,99104.31
2022-10-31T05:37:53.793Z,99100.16
2022-10-31T05:39:55.594Z,99099.09
2022-10-31T05:41:57.486Z,99100.44
2022-10-31T05:44:02.010Z,99110.06
2022-10-31T05:46:05.736Z,99099.34
2022-10-31T05:48:25.860Z,99101.84
2022-10-31T05:50:46.134Z,99103.75
2022-10-31T05:52:48.064Z,99107.06
2022-10-31T05:55:03.114Z,99108.47
2022-10-31T05:57:05.188Z,99108.22
2022-10-31T05:59:07.578Z,99108.22
2022-10-31T06:01:10.352Z,99111.53
2022-10-31T06:03:14.601Z,99111.53
2022-10-31T06:05:24.635Z,99117.84
2022-10-31T06:07:37.116Z,99109.88
2022-10-31T06:09:38.993Z,99112.38
2022-10-31T06:11:41.984Z,99108.53
2022-10-31T06:13:43.891Z,99108.53
2022-10-31T06:15:52.342Z,99106.59
2022-10-31T06:18:05.668Z,99107.16
2022-10-31T06:20:25.598Z,99119.81
2022-10-31T06:22:35.683Z,99109.06
2022-10-31T06:24:44.572Z,99112.66
2022-10-31T06:27:00.530Z,99116.22
2022-10-31T06:29:04.174Z,99109.34
2022-10-31T06:31:32.175Z,99104.69
2022-10-31T06:33:34.948Z,99113.47
2022-10-31T06:35:37.555Z,99115.94
2022-10-31T06:37:39.358Z,99113.47
2022-10-31T06:39:58.338Z,99115.16
2022-10-31T06:42:00.172Z,99116.78
2022-10-31T06:44:06.418Z,99118.44
2022-10-31T06:46:31.105Z,99123.09
2022-10-31T06:49:07.368Z,99125.56
2022-10-31T06:51:16.983Z,99128.06
2022-10-31T06:53:24.012Z,99128.06
2022-10-31T06:55:27.108Z,99127.78
2022-10-31T06:57:28.852Z,99123.97
2022-10-31T06:59:31.090Z,99122.06
2022-10-31T07:01:51.272Z,99120.97
2022-10-31T07:03:53.340Z,99125.38
2022-10-31T07:05:58.460Z,99117.38
2022-10-31T07:08:06.347Z,99120.72
2022-10-31T07:10:09.607Z,99119.38
2022-10-31T07:12:21.356Z,99122.09
2022-10-31T07:14:30.840Z,99113.88
2022-10-31T07:16:32.614Z,99121.00
2022-10-31T07:18:35.881Z,99121.56
2022-10-31T07:20:37.830Z,99120.19
2022-10-31T07:22:39.465Z,99129.59
2022-10-31T07:24:43.399Z,99124.66
2022-10-31T07:27:22.048Z,99127.72
2022-10-31T07:29:24.124Z,99133.75
2022-10-31T07:31:26.587Z,99131.56
2022-10-31T07:33:35.592Z,99133.78
2022-10-31T07:36:06.592Z,99135.19
2022-10-31T07:38:13.323Z,99133.50
2022-10-31T07:40:15.742Z,99123.91
2022-10-31T07:42:18.069Z,99130.56
2022-10-31T07:44:20.694Z,99127.53
2022-10-31T07:46:51.755Z,99137.16
2022-10-31T07:49:12.006Z,99136.63
2022-10-31T07:51:32.353Z,99130.63
2022-10-31T07:53:58.055Z,99130.06
2022-10-31T07:56:03.629Z,99135.03
2022-10-31T07:58:09.957Z,99137.53
2022-10-31T08:00:14.347Z,99139.47
2022-10-31T08:02:18.894Z,99130.44
2022-10-31T08:04:23.312Z,99128.25
2022-10-31T08:06:43.538Z,99130.75
2022-10-31T08:09:00.553Z,99121.94
2022-10-31T08:11:03.492Z,99128.28
2022-10-31T08:13:08.900Z,99123.09
2022-10-31T08:15:12.417Z,99122.56
2022-10-31T08:17:14.305Z,99126.13
2022-10-31T08:19:23.298Z,99127.53
2022-10-31T08:21:25.157Z,99121.25
2022-10-31T08:23:26.730Z,99124.56
2022-10-31T08:25:37.194Z,99115.53
2022-10-31T08:27:40.564Z,99115.00
2022-10-31T08:29:48.174Z,99117.22
2022-10-31T08:31:52.339Z,99117.47
2022-10-31T08:34:13.071Z,99115.84
2022-10-31T08:36:37.478Z,99111.75
2022-10-31T08:38:49.272Z,99113.13
2022-10-31T08:40:52.083Z,99114.50
2022-10-31T08:43:14.390Z,99105.72
2022-10-31T08:45:18.493Z,99106.81
2022-10-31T08:47:21.105Z,99105.16
2022-10-31T08:49:23.415Z,99109.31
2022-10-31T08:51:26.521Z,99115.09
2022-10-31T08:53:30.590Z,99108.22
2022-10-31T08:56:04.699Z,99109.06
2022-10-31T08:58:09.937Z,99108.53
2022-10-31T09:00:21.265Z,99105.22
2022-10-31T09:02:34.990Z,99109.91
2022-10-31T09:04:37.416Z,99102.75
2022-10-31T09:06:46.387Z,99104.97
2022-10-31T09:08:57.763Z,99104.13
2022-10-31T09:11:02.474Z,99101.69
2022-10-31T09:13:27.329Z,99098.34
2022-10-31T09:15:51.362Z,99095.88
2022-10-31T09:17:57.865Z,99092.31
2022-10-31T09:20:26.239Z,99091.47
2022-10-31T09:22:29.366Z,99099.72
2022-10-31T09:24:31.159Z,99095.34
2022-10-31T09:26:36.753Z,99100.00
2022-10-31T09:29:04.810Z,99095.91
2022-10-31T09:31:15.315Z,99105.84
2022-10-31T09:33:23.068Z,99092.31
2022-10-31T09:35:41.897Z,99097.00
2022-10-31T09:37:43.613Z,99092.59
2022-10-31T09:39:46.554Z,99084.59
2022-10-31T09:42:23.826Z,99088.75
2022-10-31T09:44:36.259Z,99085.16
2022-10-31T09:46:55.244Z,99088.16
2022-10-31T09:49:24.334Z,99089.53
2022-10-31T09:51:32.022Z,99085.97
2022-10-31T09:53:54.396Z,99085.13
2022-10-31T09:55:59.739Z,99084.28
2022-10-31T09:58:05.428Z,99078.22
2022-10-31T10:00:12.308Z,99077.66
2022-10-31T10:02:29.150Z,99073.75
2022-10-31T10:05:08.943Z,99081.16
2022-10-31T10:07:39.988Z,99078.41
2022-10-31T10:10:53.145Z,99069.84
2022-10-31T10:13:34.363Z,99065.94
2022-10-31T10:15:51.604Z,99067.59
2022-10-31T10:18:09.812Z,99068.09
2022-10-31T10:20:34.175Z,99065.06
2022-10-31T10:23:09.978Z,99065.03
2022-10-31T10:25:11.679Z,99062.50
2022-10-31T10:27:42.653Z,99066.88
2022-10-31T10:29:53.124Z,99065.72
2022-10-31T10:31:58.129Z,99058.50
2022-10-31T10:34:07.753Z,99055.72
2022-10-31T10:36:22.621Z,99053.75
2022-10-31T10:38:46.368Z,99044.03
2022-10-31T10:40:48.315Z,99045.63
2022-10-31T10:43:21.860Z,99040.06
2022-10-31T10:45:41.883Z,99036.69
2022-10-31T10:47:46.614Z,99038.00
2022-10-31T10:49:52.834Z,99032.16
2022-10-31T10:55:16.256Z,99025.97
2022-10-31T10:57:35.086Z,99027.28
2022-10-31T10:59:36.944Z,99026.13
2022-10-31T11:01:41.569Z,99021.38
2022-10-31T11:03:45.982Z,99015.47
2022-10-31T11:06:01.560Z,99017.34
2022-10-31T11:08:04.550Z,99010.66
2022-10-31T11:10:13.987Z,99001.81
2022-10-31T11:12:30.370Z,99002.56
2022-10-31T11:14:32.726Z,99005.53
2022-10-31T11:16:41.043Z,99000.78
2022-10-31T11:18:48.080Z,99000.72
2022-10-31T11:20:56.053Z,98993.78
2022-10-31T11:23:18.778Z,98991.25
2022-10-31T11:25:20.545Z,98990.34
2022-10-31T11:27:24.349Z,98989.47
2022-10-31T11:29:28.663Z,98983.03
2022-10-31T11:31:31.343Z,98978.59
2022-10-31T11:33:35.466Z,98979.63
2022-10-31T11:35:40.966Z,98969.66
2022-10-31T11:37:49.181Z,98969.84
2022-10-31T11:39:54.707Z,98970.59
2022-10-31T11:42:06.241Z,98968.88
2022-10-31T11:44:22.696Z,98959.69
2022-10-31T11:46:35.634Z,98955.72
2022-10-31T11:48:37.855Z,98950.41
2022-10-31T11:50:42.337Z,98953.09
2022-10-31T11:52:44.490Z,98949.09
2022-10-31T11:54:56.633Z,98953.75
2022-10-31T11:56:59.933Z,98943.72
2022-10-31T11:59:08.638Z,98940.03
2022-10-31T12:01:29.252Z,98941.38
2022-10-31T12:03:58.704Z,98935.47
2022-10-31T12:06:08.181Z,98927.88
2022-10-31T12:08:13.851Z,98919.47
2022-10-31T12:10:17.237Z,98922.97
2022-10-31T12:12:53.660Z,98908.25
2022-10-31T12:15:02.189Z,98911.75
2022-10-31T12:17:21.019Z,98905.00
2022-10-31T12:19:44.489Z,98903.75
2022-10-31T12:21:59.757Z,98896.16
2022-10-31T12:24:29.506Z,98883.88
2022-10-31T12:27:23.550Z,98885.72
2022-10-31T12:29:49.698Z,98883.06
2022-10-31T12:32:30.461Z,98883.44
2022-10-31T12:34:46.174Z,98876.34
2022-10-31T12:37:17.265Z,98871.03
2022-10-31T12:39:50.452Z,98864.22
2022-10-31T12:41:53.504Z,98869.88
2022-10-31T12:44:17.460Z,98856.75
2022-10-31T12:46:26.495Z,98853.03
2022-10-31T12:48:57.502Z,98854.25
2022-10-31T12:51:24.461Z,98852.16
2022-10-31T12:53:44.758Z,98846.19
2022-10-31T12:56:05.568Z,98842.16
2022-10-31T12:58:30.175Z,98844.59
2022-10-31T13:00:38.746Z,98840.88
2022-10-31T13:02:49.557Z,98836.66
2022-10-31T13:05:01.425Z,98833.25
2022-10-31T13:07:09.860Z,98833.75
2022-10-31T13:09:21.880Z,98829.25
2022-10-31T13:11:36.224Z,98827.78
2022-10-31T13:13:48.196Z,98832.19
2022-10-31T13:15:58.076Z,98822.41
2022-10-31T13:18:13.424Z,98822.41
2022-10-31T13:22:31.638Z,98813.13
2022-10-31T13:24:39.783Z,98817.53
2022-10-31T13:26:52.999Z,98815.59
2022-10-31T13:29:10.668Z,98813.94
2022-10-31T13:31:12.413Z,98816.09
2022-10-31T13:33:22.485Z,98814.44
2022-10-31T13:35:34.927Z,98814.16
2022-10-31T13:37:42.167Z,98809.41
2022-10-31T13:40:06.388Z,98815.59
2022-10-31T13:42:24.499Z,98804.00
2022-10-31T13:44:31.277Z,98792.56
2022-10-31T13:46:38.006Z,98792.56
2022-10-31T13:48:42.535Z,98786.19
2022-10-31T13:50:56.194Z,98787.84
2022-10-31T13:53:32.966Z,98789.31
2022-10-31T13:55:46.532Z,98784.88
2022-10-31T13:57:50.818Z,98782.44
2022-10-31T13:59:59.037Z,98775.22
2022-10-31T14:02:03.739Z,98780.78
2022-10-31T14:04:34.012Z,98778.00
2022-10-31T14:06:48.465Z,98770.00
2022-10-31T14:08:53.389Z,98766.91
2022-10-31T14:10:56.883Z,98765.59
2022-10-31T14:13:26.758Z,98755.78
2022-10-31T14:15:29.526Z,98763.28
2022-10-31T14:17:40.083Z,98755.94
2022-10-31T14:19:41.816Z,98752.19
2022-10-31T14:21:48.417Z,98748.25
2022-10-31T14:23:54.017Z,98741.91
2022-10-31T14:26:22.220Z,98740.88
2022-10-31T14:28:36.205Z,98741.22
2022-10-31T14:30:39.829Z,98742.34
2022-10-31T14:32:44.075Z,98743.78
2022-10-31T14:34:53.803Z,98748.53
2022-10-31T14:37:06.260Z,98744.13
2022-10-31T14:39:26.431Z,98741.34
2022-10-31T14:41:51.097Z,98735.81
2022-10-31T14:44:26.865Z,98731.38
2022-10-31T14:47:01.581Z,98725.34
2022-10-31T14:49:32.651Z,98720.56
2022-10-31T14:51:49.843Z,98722.00
2022-10-31T14:53:55.548Z,98716.47
2022-10-31T14:56:06.661Z,98715.97
2022-10-31T14:58:09.252Z,98714.31
2022-10-31T15:00:45.783Z,98704.69
2022-10-31T15:03:15.857Z,98704.19
2022-10-31T15:05:18.519Z,98702.22
2022-10-31T15:07:27.535Z,98699.78
2022-10-31T15:09:32.552Z,98700.41
2022-10-31T15:11:39.215Z,98695.50
2022-10-31T15:13:54.199Z,98696.94
2022-10-31T15:15:56.927Z,98693.69
2022-10-31T15:18:04.840Z,98693.97
2022-10-31T15:20:12.928Z,98685.75
2022-10-31T15:22:20.115Z,98692.47
2022-10-31T15:24:25.547Z,98686.09
2022-10-31T15:26:33.282Z,98692.09
2022-10-31T15:28:35.209Z,98694.84
2022-10-31T15:30:36.648Z,98703.78
2022-10-31T15:32:55.281Z,98696.59
2022-10-31T15:34:59.984Z,98690.06
2022-10-31T15:37:01.724Z,98690.69
2022-10-31T15:39:03.460Z,98676.34
2022-10-31T15:41:21.591Z,98679.72
2022-10-31T15:43:23.982Z,98674.63
2022-10-31T15:45:28.611Z,98685.41
2022-10-31T15:47:33.200Z,98675.44
2022-10-31T15:49:54.084Z,98677.53
2022-10-31T15:54:04.232Z,98687.38
2022-10-31T15:56:08.772Z,98683.59
2022-10-31T15:58:15.576Z,98695.63
2022-10-31T16:00:39.271Z,98694.94
2022-10-31T16:02:41.235Z,98690.50
2022-10-31T16:04:58.753Z,98689.50
2022-10-31T16:07:18.749Z,98672.38
2022-10-31T16:09:25.215Z,98666.63
2022-10-31T16:11:37.882Z,98660.72
2022-10-31T16:13:52.938Z,98660.31
2022-10-31T16:18:42.057Z,98675.09
2022-10-31T16:20:53.628Z,98668.22
2022-10-31T16:22:58.873Z,98671.59
2022-10-31T16:25:09.898Z,98683.59
2022-10-31T16:27:26.597Z,98680.31
2022-10-31T16:29:34.643Z,98679.78
2022-10-31T16:31:41.684Z,98687.38
2022-10-31T16:33:44.415Z,98680.53
2022-10-31T16:35:48.230Z,98686.69
2022-10-31T16:37:50.055Z,98678.19
2022-10-31T16:39:51.912Z,98687.69
2022-10-31T16:41:56.931Z,98684.75
2022-10-31T16:44:01.228Z,98679.59
2022-10-31T16:46:05.219Z,98684.94
2022-10-31T16:48:12.888Z,98680.03
2022-10-31T16:50:22.877Z,98685.06
2022-10-31T16:52:24.938Z,98689.53
2022-10-31T16:54:26.403Z,98686.28
2022-10-31T16:56:33.986Z,98678.91
2022-10-31T16:58:36.739Z,98684.53
2022-10-31T17:00:44.454Z,98685.97
2022-10-31T17:02:47.806Z,98685.22
2022-10-31T17:04:53.719Z,98686.13
2022-10-31T17:07:09.959Z,98680.69
2022-10-31T17:09:21.994Z,98693.44
2022-10-31T17:11:27.042Z,98685.47
2022-10-31T17:13:31.726Z,98698.56
2022-10-31T17:15:44.636Z,98695.06
2022-10-31T17:17:46.511Z,98699.56
2022-10-31T17:19:48.204Z,98707.34
2022-10-31T17:21:49.959Z,98706.59
2022-10-31T17:23:51.754Z,98708.03
2022-10-31T17:25:56.852Z,98705.66
2022-10-31T17:27:59.456Z,98699.09
2022-10-31T17:30:03.561Z,98699.69
2022-10-31T17:32:05.630Z,98698.34
2022-10-31T17:34:08.581Z,98697.63
2022-10-31T17:36:10.159Z,98688.28
2022-10-31T17:38:13.724Z,98688.38
2022-10-31T17:40:18.869Z,98686.50
2022-10-31T17:42:21.989Z,98693.75
2022-10-31T17:44:23.545Z,98687.19
2022-10-31T17:46:30.948Z,98689.19
2022-10-31T17:48:51.767Z,98690.91
2022-10-31T17:51:05.254Z,98690.97
2022-10-31T17:53:07.160Z,98687.78
2022-10-31T17:55:09.768Z,98682.31
2022-10-31T17:58:11.808Z,98675.00
2022-10-31T18:00:18.313Z,98677.84
2022-10-31T18:02:20.241Z,98673.19
2022-10-31T18:04:22.020Z,98673.81
2022-10-31T18:06:23.515Z,98670.56
2022-10-31T18:08:32.313Z,98675.06
2022-10-31T18:10:50.434Z,98683.59
2022-10-31T18:12:51.998Z,98692.78
2022-10-31T18:14:53.949Z,98688.97
2022-10-31T18:16:57.015Z,98686.28
2022-10-31T18:19:27.372Z,98680.81
2022-10-31T18:21:32.651Z,98675.38
2022-10-31T18:23:34.547Z,98682.56
2022-10-31T18:25:44.390Z,98685.38
2022-10-31T18:27:46.956Z,98684.34
2022-10-31T18:30:19.393Z,98687.13
2022-10-31T18:32:58.225Z,98686.09
2022-10-31T18:35:39.096Z,98683.66
2022-10-31T18:40:29.371Z,98665.59
2022-10-31T18:42:31.360Z,98664.25
2022-10-31T18:44:36.104Z,98674.72
2022-10-31T18:46:59.053Z,98676.44
2022-10-31T18:51:33.659Z,98663.28
2022-10-31T18:53:35.679Z,98664.13
2022-10-31T18:55:44.122Z,98658.34
2022-10-31T18:57:49.064Z,98659.75
2022-10-31T18:59:50.941Z,98650.13
2022-10-31T19:01:52.805Z,98646.88
2022-10-31T19:03:56.328Z,98647.44
2022-10-31T19:06:10.291Z,98654.34
2022-10-31T19:08:38.563Z,98645.88
2022-10-31T19:20:09.657Z,98658.16
2022-10-31T19:22:11.499Z,98647.19
2022-10-31T19:24:21.159Z,98651.63
2022-10-31T19:26:54.756Z,98657.72
2022-10-31T19:29:06.786Z,98639.31
2022-10-31T19:31:09.726Z,98639.31
2022-10-31T19:33:11.522Z,98634.09
2022-10-31T19:35:13.750Z,98623.97
2022-10-31T19:37:17.079Z,98610.75
2022-10-31T19:39:18.700Z,98607.78
2022-10-31T19:41:23.573Z,98605.88
2022-10-31T19:43:25.616Z,98607.28
2022-10-31T19:45:27.305Z,98614.47
2022-10-31T19:47:29.016Z,98622.19
2022-10-31T19:49:32.022Z,98623.59
2022-10-31T19:51:33.657Z,98623.06
2022-10-31T19:53:40.148Z,98625.53
2022-10-31T19:55:42.845Z,98615.63
2022-10-31T20:00:07.353Z,98610.75
2022-10-31T20:02:19.826Z,98622.03
2022-10-31T20:04:21.789Z,98633.31
2022-10-31T20:06:26.786Z,98643.78
2022-10-31T20:08:28.903Z,98639.69
2022-10-31T20:10:30.464Z,98643.53
2022-10-31T20:12:33.944Z,98642.16
2022-10-31T20:14:35.973Z,98641.91
2022-10-31T20:16:37.597Z,98653.19
2022-10-31T20:18:39.682Z,98647.16
2022-10-31T20:20:41.876Z,98644.97
2022-10-31T20:22:43.615Z,98640.56
2022-10-31T20:24:47.620Z,98647.75
2022-10-31T20:26:49.342Z,98634.88
2022-10-31T20:28:51.546Z,98634.03
2022-10-31T20:30:53.561Z,98630.75
2022-10-31T20:32:55.184Z,98632.97
2022-10-31T20:34:57.628Z,98631.31
2022-10-31T20:36:59.310Z,98625.53
2022-10-31T20:39:01.159Z,98630.81
2022-10-31T20:41:04.990Z,98626.69
2022-10-31T20:43:06.631Z,98628.31
2022-10-31T20:45:08.731Z,98624.78
2022-10-31T20:47:10.408Z,98617.63
2022-10-31T20:49:18.298Z,98613.22
2022-10-31T20:51:28.195Z,98620.38
2022-10-31T20:53:30.419Z,98615.44
2022-10-31T20:55:34.740Z,98622.06
2022-10-31T20:57:36.471Z,98620.41
2022-10-31T20:59:38.226Z,98614.38
2022-10-31T21:01:41.295Z,98618.22
2022-10-31T21:03:43.955Z,98614.66
2022-10-31T21:06:01.547Z,98613.53
2022-10-31T21:08:03.267Z,98608.31
2022-10-31T21:10:15.027Z,98607.78
2022-10-31T21:12:16.923Z,98617.41
2022-10-31T21:14:18.632Z,98612.75
2022-10-31T21:16:23.954Z,98614.13
2022-10-31T21:18:25.609Z,98610.84
2022-10-31T21:20:27.375Z,98615.53
2022-10-31T21:22:28.920Z,98608.94
2022-10-31T21:24:30.643Z,98603.16
2022-10-31T21:26:36.347Z,98604.03
2022-10-31T21:28:41.044Z,98593.28
2022-10-31T21:30:47.975Z,98600.75
2022-10-31T21:32:55.541Z,98599.38
2022-10-31T21:34:59.521Z,98600.47
2022-10-31T21:37:07.154Z,98593.09
2022-10-31T21:39:10.288Z,98586.75
2022-10-31T21:41:17.208Z,98577.16
2022-10-31T21:43:18.840Z,98586.78
2022-10-31T21:45:21.025Z,98570.03
2022-10-31T21:47:22.508Z,98571.16
2022-10-31T21:49:24.290Z,98564.56
2022-10-31T21:51:28.905Z,98569.81
2022-10-31T21:53:55.902Z,98559.09
2022-10-31T21:56:02.881Z,98558.00
2022-10-31T21:58:04.710Z,98566.53
2022-10-31T22:00:19.573Z,98565.16
2022-10-31T22:02:21.173Z,98575.88
2022-10-31T22:04:23.016Z,98597.81
2022-10-31T22:06:26.648Z,98620.84
2022-10-31T22:08:28.888Z,98625.81
2022-10-31T22:10:32.515Z,98595.38
2022-10-31T22:12:34.299Z,98573.41
2022-10-31T22:14:35.968Z,98579.16
2022-10-31T22:16:37.912Z,98590.97
2022-10-31T22:18:40.733Z,98596.75
2022-10-31T22:20:45.136Z,98590.97
2022-10-31T22:22:48.007Z,98590.69
2022-10-31T22:24:49.634Z,98581.91
2022-10-31T22:26:53.862Z,98571.78
2022-10-31T22:29:00.616Z,98570.69
2022-10-31T22:31:06.435Z,98566.56
2022-10-31T22:33:08.012Z,98570.94
2022-10-31T22:35:09.660Z,98569.03
2022-10-31T22:37:17.342Z,98572.06
2022-10-31T22:39:21.255Z,98577.81
2022-10-31T22:41:25.884Z,98579.72
2022-10-31T22:43:30.271Z,98611.84
2022-10-31T22:45:32.264Z,98630.47
2022-10-31T22:47:35.287Z,98632.41
2022-10-31T22:49:37.145Z,98617.88
2022-10-31T22:51:55.970Z,98624.44
2022-10-31T22:54:01.766Z,98625.56
2022-10-31T22:56:05.618Z,98612.94
2022-10-31T22:58:07.394Z,98622.81
2022-10-31T23:00:10.041Z,98596.47
2022-10-31T23:02:12.823Z,98607.72
2022-10-31T23:04:16.444Z,98607.44
2022-10-31T23:06:21.366Z,98606.63
2022-10-31T23:08:23.364Z,98619.50
2022-10-31T23:10:45.651Z,98619.50
2022-10-31T23:13:19.085Z,98623.38
2022-10-31T23:17:36.622Z,98624.44
2022-10-31T23:19:38.237Z,98624.44
2022-10-31T23:22:11.437Z,98619.78
2022-10-31T23:24:13.879Z,98620.88
2022-10-31T23:26:36.889Z,98621.69
2022-10-31T23:28:38.903Z,98621.16
2022-10-31T23:30:42.607Z,98623.06
2022-10-31T23:32:44.141Z,98622.81
2022-10-31T23:34:47.254Z,98626.66
2022-10-31T23:36:49.286Z,98618.72
2022-10-31T23:38:52.656Z,98624.19
2022-10-31T23:40:54.325Z,98606.06
2022-10-31T23:42:55.893Z,98607.72
2022-10-31T23:44:58.220Z,98606.06
2022-10-31T23:47:00.226Z,98609.91
2022-10-31T23:49:01.952Z,98608.00
2022-10-31T23:51:03.723Z,98609.09
2022-10-31T23:53:05.399Z,98609.09
2022-10-31T23:55:07.427Z,98604.72
2022-10-31T23:57:11.048Z,98603.06
2022-10-31T23:59:12.546Z,98610.47
